createdAt,value
2018-07-17T00:00:20.473Z,91.90
2018-07-17T00:01:20.463Z,91.90
2018-07-17T00:02:20.449Z,92.30
2018-07-17T00:03:20.436Z,92.25
2018-07-17T00:04:20.442Z,92.00
2018-07-17T00:05:20.412Z,91.90
2018-07-17T00:06:20.404Z,91.94
2018-07-17T00:07:20.407Z,91.74
2018-07-17T00:08:20.387Z,91.84
2018-07-17T00:09:20.408Z,92.82
2018-07-17T00:10:20.363Z,92.51
2018-07-17T00:11:20.350Z,91.60
2018-07-17T00:12:20.336Z,91.09
2018-07-17T00:13:20.332Z,90.58
2018-07-17T00:14:20.339Z,90.88
2018-07-17T00:15:20.307Z,90.78
2018-07-17T00:16:20.295Z,91.80
2018-07-17T00:17:20.282Z,91.03
2018-07-17T00:18:20.279Z,90.83
2018-07-17T00:19:20.291Z,92.76
2018-07-17T00:20:20.257Z,92.04
2018-07-17T00:21:20.246Z,92.04
2018-07-17T00:22:20.234Z,92.86
2018-07-17T00:23:20.220Z,92.45
2018-07-17T00:24:20.215Z,92.04
2018-07-17T00:25:20.224Z,92.55
2018-07-17T00:26:20.192Z,92.55
2018-07-17T00:27:20.179Z,92.76
2018-07-17T00:28:20.171Z,93.01
2018-07-17T00:29:20.154Z,91.94
2018-07-17T00:30:20.152Z,92.35
2018-07-17T00:31:20.155Z,92.55
2018-07-17T00:32:20.129Z,92.04
2018-07-17T00:33:20.137Z,92.35
2018-07-17T00:34:20.108Z,91.88
2018-07-17T00:35:20.092Z,92.09
2018-07-17T00:36:20.105Z,92.09
2018-07-17T00:37:20.068Z,93.62
2018-07-17T00:38:20.062Z,93.35
2018-07-17T00:39:20.051Z,93.55
2018-07-17T00:40:20.042Z,94.27
2018-07-17T00:41:20.056Z,93.96
2018-07-17T00:42:20.018Z,94.07
2018-07-17T00:43:20.007Z,93.66
2018-07-17T00:44:20.006Z,93.45
2018-07-17T00:45:19.988Z,93.51
2018-07-17T00:46:20.012Z,92.80
2018-07-17T00:47:19.963Z,92.49
2018-07-17T00:48:19.958Z,92.40
2018-07-17T00:49:19.939Z,92.90
2018-07-17T00:50:19.930Z,92.90
2018-07-17T00:51:19.951Z,93.10
2018-07-17T00:52:19.912Z,93.76
2018-07-17T00:53:19.902Z,93.35
2018-07-17T00:54:19.892Z,93.96
2018-07-17T00:55:19.877Z,94.17
2018-07-17T00:56:19.862Z,94.17
2018-07-17T00:57:19.871Z,94.27
2018-07-17T00:58:19.843Z,94.27
2018-07-17T00:59:19.834Z,94.78
2018-07-17T01:00:19.828Z,93.76
2018-07-17T01:01:19.813Z,94.07
2018-07-17T01:02:19.821Z,94.07
2018-07-17T01:03:19.792Z,93.55
2018-07-17T01:04:19.782Z,92.90
2018-07-17T01:05:19.774Z,93.05
2018-07-17T01:06:19.759Z,92.84
2018-07-17T01:07:19.767Z,92.54
2018-07-17T01:08:19.733Z,92.74
2018-07-17T01:09:19.723Z,92.84
2018-07-17T01:10:19.719Z,93.66
2018-07-17T01:11:19.706Z,94.27
2018-07-17T01:12:19.728Z,94.37
2018-07-17T01:13:19.686Z,93.96
2018-07-17T01:14:19.673Z,94.21
2018-07-17T01:15:19.659Z,94.52
2018-07-17T01:16:19.647Z,94.78
2018-07-17T01:17:19.642Z,94.57
2018-07-17T01:18:19.650Z,94.17
2018-07-17T01:19:19.615Z,94.47
2018-07-17T01:20:19.606Z,94.37
2018-07-17T01:21:19.592Z,94.07
2018-07-17T01:22:19.585Z,94.07
2018-07-17T01:23:19.605Z,94.88
2018-07-17T01:24:19.571Z,94.37
2018-07-17T01:25:19.555Z,94.07
2018-07-17T01:26:19.553Z,93.66
2018-07-17T01:27:19.530Z,93.25
2018-07-17T01:28:19.521Z,93.66
2018-07-17T01:29:19.527Z,93.55
2018-07-17T01:30:19.494Z,93.71
2018-07-17T01:31:19.514Z,93.62
2018-07-17T01:32:19.483Z,93.41
2018-07-17T01:33:19.464Z,93.62
2018-07-17T01:34:19.470Z,93.41
2018-07-17T01:35:19.450Z,92.60
2018-07-17T01:36:19.435Z,92.40
2018-07-17T01:37:19.428Z,92.49
2018-07-17T01:38:19.433Z,92.49
2018-07-17T01:39:19.433Z,92.60
2018-07-17T01:40:19.394Z,91.88
2018-07-17T01:41:19.378Z,92.29
2018-07-17T01:42:19.365Z,92.90
2018-07-17T01:43:19.361Z,92.54
2018-07-17T01:44:19.368Z,92.54
2018-07-17T01:45:19.336Z,93.35
2018-07-17T01:46:19.330Z,93.55
2018-07-17T01:47:19.310Z,93.35
2018-07-17T01:48:19.308Z,93.66
2018-07-17T01:49:19.314Z,93.55
2018-07-17T01:50:19.285Z,93.45
2018-07-17T01:51:19.266Z,94.57
2018-07-17T01:52:19.257Z,93.86
2018-07-17T01:53:19.247Z,94.47
2018-07-17T01:54:19.259Z,95.33
2018-07-17T01:55:19.232Z,94.88
2018-07-17T01:56:19.217Z,94.01
2018-07-17T01:57:19.205Z,93.50
2018-07-17T01:58:19.197Z,94.92
2018-07-17T01:59:19.179Z,95.17
2018-07-17T02:00:19.189Z,95.37
2018-07-17T02:01:19.160Z,95.37
2018-07-17T02:02:19.147Z,95.89
2018-07-17T02:03:19.143Z,96.09
2018-07-17T02:04:19.129Z,96.19
2018-07-17T02:05:19.136Z,96.39
2018-07-17T02:06:19.103Z,96.50
2018-07-17T02:07:19.099Z,96.91
2018-07-17T02:08:19.085Z,96.80
2018-07-17T02:09:19.077Z,96.80
2018-07-17T02:10:19.090Z,96.39
2018-07-17T02:11:19.048Z,95.78
2018-07-17T02:12:19.040Z,96.60
2018-07-17T02:13:19.029Z,97.06
2018-07-17T02:14:19.015Z,95.94
2018-07-17T02:15:19.041Z,96.15
2018-07-17T02:16:18.998Z,95.84
2018-07-17T02:17:18.987Z,96.04
2018-07-17T02:18:18.988Z,95.53
2018-07-17T02:19:18.960Z,95.43
2018-07-17T02:20:18.951Z,95.13
2018-07-17T02:21:18.962Z,95.49
2018-07-17T02:22:18.934Z,94.82
2018-07-17T02:23:18.917Z,94.42
2018-07-17T02:24:18.911Z,96.15
2018-07-17T02:25:18.898Z,95.43
2018-07-17T02:26:18.903Z,94.92
2018-07-17T02:27:18.881Z,95.39
2018-07-17T02:28:18.870Z,94.78
2018-07-17T02:29:18.856Z,95.74
2018-07-17T02:30:18.849Z,95.43
2018-07-17T02:31:18.855Z,96.25
2018-07-17T02:32:18.821Z,95.64
2018-07-17T02:33:18.810Z,95.53
2018-07-17T02:34:18.806Z,95.33
2018-07-17T02:35:18.792Z,96.66
2018-07-17T02:36:18.808Z,95.08
2018-07-17T02:37:18.769Z,94.98
2018-07-17T02:38:18.752Z,95.53
2018-07-17T02:39:18.748Z,95.43
2018-07-17T02:40:18.762Z,94.98
2018-07-17T02:41:18.726Z,94.98
2018-07-17T02:42:18.751Z,94.47
2018-07-17T02:43:18.699Z,94.27
2018-07-17T02:44:18.694Z,94.17
2018-07-17T02:45:18.694Z,94.47
2018-07-17T02:46:18.683Z,93.55
2018-07-17T02:47:18.682Z,93.41
2018-07-17T02:48:18.649Z,93.51
2018-07-17T02:49:18.641Z,92.29
2018-07-17T02:50:18.622Z,92.19
2018-07-17T02:51:18.613Z,91.99
2018-07-17T02:52:18.623Z,92.40
2018-07-17T02:53:18.599Z,93.62
2018-07-17T02:54:18.578Z,92.29
2018-07-17T02:55:18.576Z,92.60
2018-07-17T02:56:18.559Z,92.60
2018-07-17T02:57:18.565Z,92.70
2018-07-17T02:58:18.544Z,92.90
2018-07-17T02:59:18.550Z,93.31
2018-07-17T03:00:18.524Z,93.31
2018-07-17T03:01:18.511Z,94.73
2018-07-17T03:02:18.564Z,94.37
2018-07-17T03:03:18.505Z,94.57
2018-07-17T03:04:18.472Z,94.27
2018-07-17T03:05:18.459Z,94.27
2018-07-17T03:06:18.485Z,94.68
2018-07-17T03:07:18.495Z,94.37
2018-07-17T03:08:18.429Z,95.08
2018-07-17T03:09:18.415Z,94.57
2018-07-17T03:10:18.420Z,95.49
2018-07-17T03:11:18.399Z,95.08
2018-07-17T03:12:18.395Z,95.49
2018-07-17T03:13:18.414Z,95.49
2018-07-17T03:14:18.361Z,94.27
2018-07-17T03:15:18.353Z,94.37
2018-07-17T03:16:18.344Z,94.17
2018-07-17T03:17:18.328Z,94.88
2018-07-17T03:18:18.342Z,93.96
2018-07-17T03:19:18.311Z,94.47
2018-07-17T03:20:18.300Z,94.47
2018-07-17T03:21:18.293Z,93.96
2018-07-17T03:22:18.279Z,94.37
2018-07-17T03:23:18.294Z,94.17
2018-07-17T03:24:18.261Z,94.17
2018-07-17T03:25:18.253Z,94.17
2018-07-17T03:26:18.238Z,94.78
2018-07-17T03:27:18.240Z,94.37
2018-07-17T03:28:18.209Z,93.92
2018-07-17T03:29:18.236Z,95.24
2018-07-17T03:30:18.200Z,94.73
2018-07-17T03:31:18.181Z,94.43
2018-07-17T03:32:18.170Z,95.24
2018-07-17T03:33:18.172Z,94.53
2018-07-17T03:34:18.167Z,94.32
2018-07-17T03:35:18.146Z,94.84
2018-07-17T03:36:18.174Z,94.53
2018-07-17T03:37:18.124Z,95.30
2018-07-17T03:38:18.110Z,93.47
2018-07-17T03:39:18.133Z,93.01
2018-07-17T03:40:18.105Z,93.47
2018-07-17T03:41:18.110Z,94.32
2018-07-17T03:42:18.063Z,93.92
2018-07-17T03:43:18.056Z,93.31
2018-07-17T03:44:18.058Z,93.62
2018-07-17T03:45:18.033Z,94.32
2018-07-17T03:46:18.015Z,94.32
2018-07-17T03:47:18.006Z,93.82
2018-07-17T03:48:17.994Z,93.31
2018-07-17T03:49:18.009Z,94.37
2018-07-17T03:50:17.978Z,94.78
2018-07-17T03:51:17.975Z,94.37
2018-07-17T03:52:17.985Z,95.14
2018-07-17T03:53:17.946Z,94.57
2018-07-17T03:54:17.926Z,94.23
2018-07-17T03:55:17.938Z,93.41
2018-07-17T03:56:17.921Z,92.14
2018-07-17T03:57:17.900Z,91.29
2018-07-17T03:58:17.882Z,90.88
2018-07-17T03:59:17.874Z,89.22
2018-07-17T04:00:17.882Z,87.24
2018-07-17T04:01:17.854Z,88.82
2018-07-17T04:02:17.847Z,85.94
2018-07-17T04:03:17.834Z,86.65
2018-07-17T04:04:17.904Z,86.15
2018-07-17T04:05:17.835Z,86.15
2018-07-17T04:06:17.800Z,86.25
2018-07-17T04:07:17.793Z,86.05
2018-07-17T04:08:17.778Z,86.76
2018-07-17T04:09:17.765Z,86.25
2018-07-17T04:10:17.806Z,87.16
2018-07-17T04:11:17.762Z,87.57
2018-07-17T04:12:17.750Z,88.78
2018-07-17T04:13:17.800Z,88.18
2018-07-17T04:14:17.717Z,89.43
2018-07-17T04:15:17.704Z,88.52
2018-07-17T04:16:17.713Z,88.93
2018-07-17T04:17:17.686Z,90.05
2018-07-17T04:18:17.672Z,88.76
2018-07-17T04:19:17.664Z,89.48
2018-07-17T04:20:17.648Z,89.48
2018-07-17T04:21:17.686Z,89.78
2018-07-17T04:22:17.632Z,90.09
2018-07-17T04:23:17.635Z,89.37
2018-07-17T04:24:17.608Z,88.56
2018-07-17T04:25:17.600Z,87.51
2018-07-17T04:26:17.601Z,88.89
2018-07-17T04:27:17.581Z,87.46
2018-07-17T04:28:17.583Z,87.46
2018-07-17T04:29:17.583Z,84.72
2018-07-17T04:30:17.570Z,85.19
2018-07-17T04:31:17.558Z,84.24
2018-07-17T04:32:17.520Z,84.24
2018-07-17T04:33:17.533Z,83.59
2018-07-17T04:34:17.503Z,83.23
2018-07-17T04:35:17.490Z,84.91
2018-07-17T04:36:17.479Z,84.20
2018-07-17T04:37:17.490Z,85.01
2018-07-17T04:38:17.456Z,82.58
2018-07-17T04:39:17.445Z,83.80
2018-07-17T04:40:17.437Z,83.39
2018-07-17T04:41:17.420Z,85.21
2018-07-17T04:42:17.435Z,85.01
2018-07-17T04:43:17.408Z,85.11
2018-07-17T04:44:17.550Z,84.81
2018-07-17T04:45:17.377Z,84.91
2018-07-17T04:46:17.375Z,87.14
2018-07-17T04:47:17.386Z,85.52
2018-07-17T04:48:17.352Z,84.50
2018-07-17T04:49:17.349Z,88.56
2018-07-17T04:50:17.323Z,87.69
2018-07-17T04:51:17.314Z,87.59
2018-07-17T04:52:17.306Z,86.98
2018-07-17T04:53:17.312Z,85.66
2018-07-17T04:54:17.292Z,86.07
2018-07-17T04:55:17.274Z,85.56
2018-07-17T04:56:17.270Z,84.14
2018-07-17T04:57:17.254Z,82.89
2018-07-17T04:58:17.260Z,82.34
2018-07-17T04:59:17.229Z,80.52
2018-07-17T05:00:17.227Z,81.29
2018-07-17T05:01:17.228Z,80.64
2018-07-17T05:02:17.197Z,79.93
2018-07-17T05:03:17.204Z,79.73
2018-07-17T05:04:17.181Z,80.64
2018-07-17T05:05:17.175Z,81.96
2018-07-17T05:06:17.157Z,81.55
2018-07-17T05:07:17.144Z,80.74
2018-07-17T05:08:17.158Z,80.54
2018-07-17T05:09:17.124Z,82.06
2018-07-17T05:10:17.109Z,82.36
2018-07-17T05:11:17.108Z,82.36
2018-07-17T05:12:17.116Z,80.54
2018-07-17T05:13:17.076Z,83.07
2018-07-17T05:14:17.131Z,81.35
2018-07-17T05:15:17.117Z,81.55
2018-07-17T05:16:17.066Z,80.00
2018-07-17T05:17:17.038Z,79.69
2018-07-17T05:18:17.027Z,80.60
2018-07-17T05:19:17.031Z,78.55
2018-07-17T05:20:17.011Z,81.07
2018-07-17T05:21:16.994Z,78.85
2018-07-17T05:22:16.978Z,79.25
2018-07-17T05:23:16.969Z,80.77
2018-07-17T05:24:16.978Z,79.41
2018-07-17T05:25:16.944Z,81.74
2018-07-17T05:26:16.944Z,81.74
2018-07-17T05:27:16.929Z,81.13
2018-07-17T05:28:16.915Z,82.65
2018-07-17T05:29:16.940Z,83.46
2018-07-17T05:30:16.899Z,83.86
2018-07-17T05:31:16.884Z,83.46
2018-07-17T05:32:16.879Z,83.40
2018-07-17T05:33:16.863Z,83.29
2018-07-17T05:34:16.864Z,84.11
2018-07-17T05:35:16.965Z,82.18
2018-07-17T05:36:16.879Z,81.37
2018-07-17T05:37:16.817Z,80.06
2018-07-17T05:38:16.819Z,79.62
2018-07-17T05:39:16.797Z,79.17
2018-07-17T05:40:16.825Z,79.58
2018-07-17T05:41:16.776Z,78.27
2018-07-17T05:42:16.765Z,80.35
2018-07-17T05:43:16.750Z,81.46
2018-07-17T05:44:16.744Z,80.45
2018-07-17T05:45:16.756Z,79.44
2018-07-17T05:46:16.722Z,79.44
2018-07-17T05:47:16.736Z,80.85
2018-07-17T05:48:16.697Z,83.64
2018-07-17T05:49:16.711Z,83.14
2018-07-17T05:50:16.680Z,82.23
2018-07-17T05:51:16.693Z,79.71
2018-07-17T05:52:16.662Z,82.13
2018-07-17T05:53:16.659Z,82.29
2018-07-17T05:54:16.634Z,81.28
2018-07-17T05:55:16.631Z,80.38
2018-07-17T05:56:16.629Z,83.91
2018-07-17T05:57:16.605Z,80.68
2018-07-17T05:58:16.643Z,79.57
2018-07-17T05:59:16.584Z,81.04
2018-07-17T06:00:16.587Z,82.25
2018-07-17T06:01:16.599Z,81.01
2018-07-17T06:02:16.545Z,79.39
2018-07-17T06:03:16.574Z,79.49
2018-07-17T06:04:16.527Z,81.87
2018-07-17T06:05:16.515Z,80.46
2018-07-17T06:06:16.527Z,80.66
2018-07-17T06:07:16.494Z,77.81
2018-07-17T06:08:16.478Z,77.40
2018-07-17T06:09:16.467Z,77.50
2018-07-17T06:10:16.510Z,76.76
2018-07-17T06:11:16.452Z,76.70
2018-07-17T06:12:16.458Z,74.25
2018-07-17T06:13:16.427Z,71.83
2018-07-17T06:14:16.418Z,73.51
2018-07-17T06:15:16.403Z,75.12
2018-07-17T06:16:16.391Z,74.58
2018-07-17T06:17:16.421Z,74.78
2018-07-17T06:18:16.393Z,74.98
2018-07-17T06:19:16.365Z,72.44
2018-07-17T06:20:16.368Z,73.94
2018-07-17T06:21:16.339Z,72.33
2018-07-17T06:22:16.364Z,75.25
2018-07-17T06:23:16.325Z,75.62
2018-07-17T06:24:16.312Z,69.59
2018-07-17T06:25:16.301Z,71.50
2018-07-17T06:26:16.299Z,72.20
2018-07-17T06:27:16.273Z,72.06
2018-07-17T06:28:16.285Z,68.76
2018-07-17T06:29:16.254Z,68.55
2018-07-17T06:30:16.252Z,67.11
2018-07-17T06:31:16.237Z,68.02
2018-07-17T06:32:16.226Z,66.52
2018-07-17T06:33:16.233Z,68.29
2018-07-17T06:34:16.221Z,67.18
2018-07-17T06:35:16.187Z,63.98
2018-07-17T06:36:16.182Z,66.48
2018-07-17T06:37:16.169Z,65.45
2018-07-17T06:38:16.184Z,69.06
2018-07-17T06:39:16.169Z,66.35
2018-07-17T06:40:16.133Z,64.54
2018-07-17T06:41:16.126Z,65.65
2018-07-17T06:42:16.116Z,66.75
2018-07-17T06:43:16.133Z,66.45
2018-07-17T06:44:16.097Z,66.25
2018-07-17T06:45:16.100Z,64.62
2018-07-17T06:46:16.072Z,64.34
2018-07-17T06:47:16.063Z,66.02
2018-07-17T06:48:16.071Z,65.52
2018-07-17T06:49:16.080Z,64.31
2018-07-17T06:50:16.158Z,65.22
2018-07-17T06:51:16.023Z,64.81
2018-07-17T06:52:16.006Z,63.39
2018-07-17T06:53:15.999Z,64.39
2018-07-17T06:54:16.011Z,63.78
2018-07-17T06:55:15.979Z,67.59
2018-07-17T06:56:15.975Z,65.39
2018-07-17T06:57:16.030Z,64.95
2018-07-17T06:58:15.943Z,64.09
2018-07-17T06:59:15.969Z,66.25
2018-07-17T07:00:15.937Z,66.55
2018-07-17T07:01:15.910Z,62.78
2018-07-17T07:02:15.918Z,66.49
2018-07-17T07:03:15.893Z,64.25
2018-07-17T07:04:15.911Z,64.55
2018-07-17T07:05:15.898Z,65.36
2018-07-17T07:06:15.864Z,63.85
2018-07-17T07:07:15.843Z,63.95
2018-07-17T07:08:15.849Z,64.65
2018-07-17T07:09:15.826Z,64.06
2018-07-17T07:10:15.832Z,65.55
2018-07-17T07:11:15.874Z,62.85
2018-07-17T07:12:15.797Z,67.52
2018-07-17T07:13:15.780Z,63.42
2018-07-17T07:14:15.772Z,62.62
2018-07-17T07:15:15.790Z,64.39
2018-07-17T07:16:15.755Z,63.82
2018-07-17T07:17:15.741Z,62.19
2018-07-17T07:18:15.725Z,63.19
2018-07-17T07:19:15.713Z,66.59
2018-07-17T07:20:15.726Z,65.09
2018-07-17T07:21:15.715Z,62.29
2018-07-17T07:22:15.685Z,65.09
2018-07-17T07:23:15.700Z,61.96
2018-07-17T07:24:15.659Z,66.16
2018-07-17T07:25:15.670Z,63.26
2018-07-17T07:26:15.642Z,59.53
2018-07-17T07:27:15.647Z,61.24
2018-07-17T07:28:15.623Z,59.44
2018-07-17T07:29:15.611Z,62.83
2018-07-17T07:30:15.630Z,58.21
2018-07-17T07:31:15.600Z,59.51
2018-07-17T07:32:15.574Z,60.61
2018-07-17T07:33:15.571Z,62.01
2018-07-17T07:34:15.591Z,57.81
2018-07-17T07:35:15.563Z,59.48
2018-07-17T07:36:15.590Z,58.98
2018-07-17T07:37:15.542Z,58.18
2018-07-17T07:38:15.512Z,59.48
2018-07-17T07:39:15.497Z,57.88
2018-07-17T07:40:15.511Z,58.25
2018-07-17T07:41:15.528Z,57.35
2018-07-17T07:42:15.493Z,57.86
2018-07-17T07:43:15.455Z,58.95
2018-07-17T07:44:15.449Z,58.15
2018-07-17T07:45:15.443Z,60.05
2018-07-17T07:46:15.437Z,57.15
2018-07-17T07:47:15.467Z,61.32
2018-07-17T07:48:15.409Z,57.06
2018-07-17T07:49:15.457Z,57.82
2018-07-17T07:50:15.394Z,57.73
2018-07-17T07:51:15.376Z,57.13
2018-07-17T07:52:15.424Z,57.82
2018-07-17T07:53:15.354Z,57.60
2018-07-17T07:54:15.351Z,56.81
2018-07-17T07:55:15.334Z,55.01
2018-07-17T07:56:15.318Z,53.61
2018-07-17T07:57:15.329Z,55.51
2018-07-17T07:58:15.301Z,54.21
2018-07-17T07:59:15.294Z,54.91
2018-07-17T08:00:15.301Z,59.56
2018-07-17T08:01:15.271Z,54.28
2018-07-17T08:02:15.280Z,57.47
2018-07-17T08:03:15.265Z,56.27
2018-07-17T08:04:15.234Z,56.77
2018-07-17T08:05:15.233Z,54.88
2018-07-17T08:06:15.218Z,55.58
2018-07-17T08:07:15.228Z,55.68
2018-07-17T08:08:15.199Z,54.26
2018-07-17T08:09:15.190Z,54.26
2018-07-17T08:10:15.173Z,55.16
2018-07-17T08:11:15.159Z,53.27
2018-07-17T08:12:15.281Z,54.36
2018-07-17T08:13:15.150Z,55.55
2018-07-17T08:14:15.129Z,53.34
2018-07-17T08:15:15.117Z,54.13
2018-07-17T08:16:15.109Z,54.21
2018-07-17T08:17:15.096Z,57.59
2018-07-17T08:18:15.120Z,52.94
2018-07-17T08:19:15.080Z,54.11
2018-07-17T08:20:15.071Z,52.91
2018-07-17T08:21:15.057Z,53.58
2018-07-17T08:22:15.052Z,54.11
2018-07-17T08:23:15.072Z,54.18
2018-07-17T08:24:15.109Z,54.55
2018-07-17T08:25:15.014Z,51.97
2018-07-17T08:26:15.006Z,52.86
2018-07-17T08:27:14.996Z,53.44
2018-07-17T08:28:15.006Z,55.32
2018-07-17T08:29:14.972Z,53.21
2018-07-17T08:30:14.963Z,51.23
2018-07-17T08:31:14.956Z,49.74
2018-07-17T08:32:14.950Z,49.04
2018-07-17T08:33:14.940Z,50.51
2018-07-17T08:34:14.947Z,50.58
2018-07-17T08:35:14.910Z,49.19
2018-07-17T08:36:14.897Z,47.90
2018-07-17T08:37:14.894Z,49.46
2018-07-17T08:38:14.881Z,49.15
2018-07-17T08:39:14.892Z,47.56
2018-07-17T08:40:14.865Z,50.31
2018-07-17T08:41:14.850Z,49.29
2018-07-17T08:42:14.838Z,50.88
2018-07-17T08:43:14.898Z,45.83
2018-07-17T08:44:14.876Z,47.89
2018-07-17T08:45:14.824Z,46.30
2018-07-17T08:46:14.800Z,46.28
2018-07-17T08:47:14.786Z,46.97
2018-07-17T08:48:14.779Z,47.86
2018-07-17T08:49:14.812Z,48.06
2018-07-17T08:50:14.760Z,44.97
2018-07-17T08:51:14.752Z,46.75
2018-07-17T08:52:14.746Z,44.97
2018-07-17T08:53:14.731Z,44.65
2018-07-17T08:54:14.756Z,46.14
2018-07-17T08:55:14.706Z,44.65
2018-07-17T08:56:14.697Z,44.26
2018-07-17T08:57:14.696Z,47.99
2018-07-17T08:58:14.681Z,45.45
2018-07-17T08:59:14.697Z,44.65
2018-07-17T09:00:14.655Z,44.32
2018-07-17T09:01:14.648Z,42.79
2018-07-17T09:02:14.640Z,43.09
2018-07-17T09:03:14.635Z,44.96
2018-07-17T09:04:14.627Z,41.89
2018-07-17T09:05:14.637Z,45.73
2018-07-17T09:06:14.615Z,43.59
2018-07-17T09:07:14.588Z,43.43
2018-07-17T09:08:14.596Z,43.74
2018-07-17T09:09:14.598Z,44.54
2018-07-17T09:10:14.589Z,45.84
2018-07-17T09:11:14.564Z,43.66
2018-07-17T09:12:14.580Z,47.62
2018-07-17T09:13:14.647Z,46.75
2018-07-17T09:14:14.541Z,44.38
2018-07-17T09:15:14.506Z,45.57
2018-07-17T09:16:14.523Z,44.68
2018-07-17T09:17:14.495Z,45.74
2018-07-17T09:18:14.478Z,45.05
2018-07-17T09:19:14.467Z,49.92
2018-07-17T09:20:14.459Z,46.64
2018-07-17T09:21:14.475Z,44.37
2018-07-17T09:22:14.449Z,42.02
2018-07-17T09:23:14.434Z,44.59
2018-07-17T09:24:14.425Z,45.48
2018-07-17T09:25:14.410Z,44.89
2018-07-17T09:26:14.425Z,42.34
2018-07-17T09:27:14.388Z,44.73
2018-07-17T09:28:14.461Z,44.43
2018-07-17T09:29:14.367Z,47.13
2018-07-17T09:30:14.359Z,47.89
2018-07-17T09:31:14.351Z,45.82
2018-07-17T09:32:14.355Z,47.28
2018-07-17T09:33:14.325Z,46.22
2018-07-17T09:34:14.333Z,46.47
2018-07-17T09:35:14.311Z,44.20
2018-07-17T09:36:14.317Z,43.62
2018-07-17T09:37:14.316Z,47.35
2018-07-17T09:38:14.276Z,44.89
2018-07-17T09:39:14.263Z,45.87
2018-07-17T09:40:14.252Z,43.98
2018-07-17T09:41:14.246Z,46.91
2018-07-17T09:42:14.256Z,43.42
2018-07-17T09:43:14.248Z,43.42
2018-07-17T09:44:14.251Z,42.22
2018-07-17T09:45:14.218Z,43.10
2018-07-17T09:46:14.194Z,43.99
2018-07-17T09:47:14.212Z,44.83
2018-07-17T09:48:14.180Z,43.85
2018-07-17T09:49:14.185Z,40.00
2018-07-17T09:50:14.154Z,43.83
2018-07-17T09:51:14.152Z,41.06
2018-07-17T09:52:14.165Z,39.50
2018-07-17T09:53:14.124Z,41.77
2018-07-17T09:54:14.157Z,43.24
2018-07-17T09:55:14.124Z,38.92
2018-07-17T09:56:14.109Z,38.42
2018-07-17T09:57:14.118Z,38.90
2018-07-17T09:58:14.070Z,38.40
2018-07-17T09:59:14.075Z,41.94
2018-07-17T10:00:14.081Z,41.39
2018-07-17T10:01:14.060Z,38.93
2018-07-17T10:02:14.074Z,39.74
2018-07-17T10:03:14.025Z,44.66
2018-07-17T10:04:14.011Z,43.28
2018-07-17T10:05:13.999Z,42.22
2018-07-17T10:06:14.006Z,42.63
2018-07-17T10:07:14.001Z,41.39
2018-07-17T10:08:13.972Z,42.18
2018-07-17T10:09:13.966Z,47.31
2018-07-17T10:10:13.964Z,41.17
2018-07-17T10:11:13.951Z,40.90
2018-07-17T10:12:13.958Z,40.61
2018-07-17T10:13:13.915Z,46.04
2018-07-17T10:14:13.912Z,43.17
2018-07-17T10:15:13.908Z,45.06
2018-07-17T10:16:13.889Z,41.22
2018-07-17T10:17:13.900Z,43.11
2018-07-17T10:18:13.886Z,42.05
2018-07-17T10:19:13.854Z,43.13
2018-07-17T10:20:13.891Z,43.13
2018-07-17T10:21:13.839Z,42.83
2018-07-17T10:22:13.841Z,40.84
2018-07-17T10:23:13.836Z,40.07
2018-07-17T10:24:13.804Z,39.97
2018-07-17T10:25:13.790Z,42.34
2018-07-17T10:26:13.855Z,40.56
2018-07-17T10:27:13.800Z,45.20
2018-07-17T10:28:13.763Z,42.02
2018-07-17T10:29:13.757Z,40.35
2018-07-17T10:30:13.754Z,40.92
2018-07-17T10:31:13.741Z,40.45
2018-07-17T10:32:13.779Z,46.74
2018-07-17T10:33:13.706Z,42.79
2018-07-17T10:34:13.706Z,43.78
2018-07-17T10:35:13.696Z,40.21
2018-07-17T10:36:13.682Z,42.20
2018-07-17T10:37:13.684Z,42.18
2018-07-17T10:38:13.661Z,39.12
2018-07-17T10:39:13.667Z,40.31
2018-07-17T10:40:13.637Z,45.46
2018-07-17T10:41:13.628Z,40.41
2018-07-17T10:42:13.612Z,41.39
2018-07-17T10:43:13.609Z,41.71
2018-07-17T10:44:13.612Z,40.13
2018-07-17T10:45:13.584Z,41.91
2018-07-17T10:46:13.580Z,40.90
2018-07-17T10:47:13.606Z,43.17
2018-07-17T10:48:13.560Z,41.20
2018-07-17T10:49:13.568Z,39.81
2018-07-17T10:50:13.533Z,40.31
2018-07-17T10:51:13.523Z,42.47
2018-07-17T10:52:13.546Z,43.37
2018-07-17T10:53:13.507Z,40.21
2018-07-17T10:54:13.508Z,40.27
2018-07-17T10:55:13.481Z,41.45
2018-07-17T10:56:13.472Z,39.09
2018-07-17T10:57:13.460Z,40.84
2018-07-17T10:58:13.460Z,40.35
2018-07-17T10:59:13.475Z,40.55
2018-07-17T11:00:13.432Z,39.84
2018-07-17T11:01:13.425Z,45.67
2018-07-17T11:02:13.407Z,42.00
2018-07-17T11:03:13.402Z,42.91
2018-07-17T11:04:13.389Z,40.94
2018-07-17T11:05:13.395Z,40.25
2018-07-17T11:06:13.372Z,40.76
2018-07-17T11:07:13.368Z,39.95
2018-07-17T11:08:13.350Z,39.87
2018-07-17T11:09:13.340Z,42.18
2018-07-17T11:10:13.373Z,41.91
2018-07-17T11:11:13.319Z,42.32
2018-07-17T11:12:13.308Z,43.60
2018-07-17T11:13:13.316Z,47.55
2018-07-17T11:14:13.284Z,44.67
2018-07-17T11:15:13.311Z,45.26
2018-07-17T11:16:13.266Z,43.19
2018-07-17T11:17:13.256Z,43.56
2018-07-17T11:18:13.279Z,44.06
2018-07-17T11:19:13.241Z,42.95
2018-07-17T11:20:13.230Z,42.07
2018-07-17T11:21:13.240Z,42.46
2018-07-17T11:22:13.208Z,43.34
2018-07-17T11:23:13.200Z,41.27
2018-07-17T11:24:13.192Z,44.35
2018-07-17T11:25:13.194Z,40.78
2018-07-17T11:26:13.198Z,43.03
2018-07-17T11:27:13.163Z,42.04
2018-07-17T11:28:13.162Z,41.22
2018-07-17T11:29:13.158Z,43.95
2018-07-17T11:30:13.141Z,44.62
2018-07-17T11:31:13.148Z,39.95
2018-07-17T11:32:13.120Z,40.62
2018-07-17T11:33:13.115Z,44.43
2018-07-17T11:34:13.113Z,38.82
2018-07-17T11:35:13.095Z,36.12
2018-07-17T11:36:13.140Z,37.49
2018-07-17T11:37:13.075Z,37.96
2018-07-17T11:38:13.084Z,35.79
2018-07-17T11:39:13.082Z,34.09
2018-07-17T11:40:13.110Z,34.41
2018-07-17T11:41:13.046Z,36.07
2018-07-17T11:42:13.058Z,36.24
2018-07-17T11:43:13.029Z,33.59
2018-07-17T11:44:13.020Z,33.40
2018-07-17T11:45:13.016Z,33.61
2018-07-17T11:46:13.001Z,37.30
2018-07-17T11:47:13.021Z,33.51
2018-07-17T11:48:12.988Z,37.52
2018-07-17T11:49:12.977Z,32.23
2018-07-17T11:50:12.976Z,32.21
2018-07-17T11:51:12.967Z,36.90
2018-07-17T11:52:12.988Z,32.97
2018-07-17T11:53:12.992Z,33.85
2018-07-17T11:54:12.935Z,31.90
2018-07-17T11:55:12.931Z,35.71
2018-07-17T11:56:12.937Z,32.40
2018-07-17T11:57:12.951Z,35.72
2018-07-17T11:58:12.903Z,36.98
2018-07-17T11:59:13.023Z,34.91
2018-07-17T12:00:12.908Z,33.46
2018-07-17T12:01:12.885Z,33.64
2018-07-17T12:02:12.891Z,33.92
2018-07-17T12:03:12.907Z,32.42
2018-07-17T12:04:12.870Z,32.91
2018-07-17T12:05:12.857Z,36.00
2018-07-17T12:06:12.843Z,32.10
2018-07-17T12:07:12.839Z,29.96
2018-07-17T12:08:12.847Z,34.72
2018-07-17T12:09:12.838Z,33.15
2018-07-17T12:10:12.817Z,32.55
2018-07-17T12:11:12.815Z,29.43
2018-07-17T12:12:12.799Z,32.13
2018-07-17T12:13:12.805Z,28.44
2018-07-17T12:14:12.786Z,30.07
2018-07-17T12:15:12.795Z,28.89
2018-07-17T12:16:12.777Z,30.07
2018-07-17T12:17:12.760Z,29.22
2018-07-17T12:18:12.768Z,28.08
2018-07-17T12:19:12.759Z,30.29
2018-07-17T12:20:12.844Z,27.42
2018-07-17T12:21:12.735Z,28.11
2018-07-17T12:22:12.730Z,30.35
2018-07-17T12:23:12.737Z,28.09
2018-07-17T12:24:12.726Z,27.22
2018-07-17T12:25:12.704Z,28.00
2018-07-17T12:26:12.694Z,28.12
2018-07-17T12:27:12.686Z,28.99
2018-07-17T12:28:12.721Z,27.43
2018-07-17T12:29:12.688Z,28.00
2018-07-17T12:30:12.662Z,30.74
2018-07-17T12:31:12.658Z,28.09
2018-07-17T12:32:12.652Z,27.40
2018-07-17T12:33:12.639Z,25.74
2018-07-17T12:34:12.661Z,28.07
2018-07-17T12:35:12.643Z,32.29
2018-07-17T12:36:12.644Z,29.17
2018-07-17T12:37:12.643Z,29.17
2018-07-17T12:38:12.605Z,24.15
2018-07-17T12:39:12.649Z,26.71
2018-07-17T12:40:12.593Z,25.71
2018-07-17T12:41:12.581Z,25.68
2018-07-17T12:42:12.584Z,24.12
2018-07-17T12:43:12.607Z,25.10
2018-07-17T12:44:12.582Z,25.09
2018-07-17T12:45:12.573Z,24.72
2018-07-17T12:46:12.552Z,26.75
2018-07-17T12:47:12.543Z,26.45
2018-07-17T12:48:12.541Z,24.62
2018-07-17T12:49:12.534Z,26.42
2018-07-17T12:50:12.567Z,23.33
2018-07-17T12:51:12.515Z,23.72
2018-07-17T12:52:12.513Z,24.23